Terminal Aerodrome Forecast
Issued by NWS

Home | Current Version | Previous Version | Text Only | Print | Product List | Glossary On
Versions: 1 2 3 4 5 6 7 8 9 10 11 12 13 14 15
540
FTUS44 KSJT 230520
TAFSOA
TAF
KSOA 230520Z 2306/2406 14010KT P6SM SKC
     FM230900 15010KT P6SM OVC015
     FM231500 16013KT P6SM OVC030
     FM231800 16012KT P6SM SCT100=

USA.gov is the U.S. government's official web portal to all federal, state and local government web resources and services.